createdAt,value
2017-12-20T00:01:17.598Z,18.00
2017-12-20T00:03:45.069Z,18.00
2017-12-20T00:06:12.569Z,16.33
2017-12-20T00:08:40.077Z,14.70
2017-12-20T00:11:08.342Z,14.07
2017-12-20T00:13:35.810Z,11.63
2017-12-20T00:16:04.078Z,14.20
2017-12-20T00:18:31.566Z,13.00
2017-12-20T00:20:59.785Z,13.03
2017-12-20T00:23:28.693Z,12.95
2017-12-20T00:25:56.154Z,12.00
2017-12-20T00:28:23.633Z,12.50
2017-12-20T00:30:51.877Z,10.97
2017-12-20T00:33:19.334Z,13.10
2017-12-20T00:35:46.808Z,11.60
2017-12-20T00:38:14.265Z,13.00
2017-12-20T00:40:41.758Z,11.97
2017-12-20T00:43:09.982Z,11.30
2017-12-20T00:45:38.148Z,12.87
2017-12-20T00:48:05.630Z,13.20
2017-12-20T00:50:33.083Z,6.10
2017-12-20T00:53:00.992Z,11.20
2017-12-20T00:55:28.666Z,9.85
2017-12-20T00:57:56.128Z,10.87
2017-12-20T01:00:23.604Z,11.37
2017-12-20T01:02:51.082Z,11.40
2017-12-20T01:05:19.801Z,10.83
2017-12-20T01:07:48.068Z,13.37
2017-12-20T01:10:15.530Z,12.17
2017-12-20T01:12:42.986Z,14.00
2017-12-20T01:15:10.469Z,13.10
2017-12-20T01:17:38.697Z,12.77
2017-12-20T01:20:06.190Z,11.47
2017-12-20T01:22:34.434Z,12.83
2017-12-20T01:25:01.933Z,10.60
2017-12-20T01:27:30.173Z,12.33
2017-12-20T01:29:57.625Z,11.87
2017-12-20T01:32:25.109Z,12.07
2017-12-20T01:34:52.566Z,12.00
2017-12-20T01:37:20.042Z,12.83
2017-12-20T01:39:48.267Z,10.13
2017-12-20T01:42:15.770Z,11.00
2017-12-20T01:44:43.995Z,11.80
2017-12-20T01:47:11.454Z,12.57
2017-12-20T01:49:39.012Z,11.50
2017-12-20T01:52:06.470Z,12.20
2017-12-20T01:54:33.935Z,12.87
2017-12-20T01:57:01.414Z,12.50
2017-12-20T01:59:28.891Z,11.63
2017-12-20T02:01:56.375Z,11.77
2017-12-20T02:04:23.859Z,11.40
2017-12-20T02:06:51.337Z,12.20
2017-12-20T02:09:18.819Z,11.47
2017-12-20T02:11:47.046Z,11.47
2017-12-20T02:14:14.526Z,12.23
2017-12-20T02:16:42.014Z,12.47
2017-12-20T02:19:09.494Z,11.60
2017-12-20T02:21:37.733Z,11.33
2017-12-20T02:24:05.218Z,12.80
2017-12-20T02:26:33.443Z,12.70
2017-12-20T02:29:00.903Z,12.10
2017-12-20T02:31:28.381Z,12.30
2017-12-20T02:33:55.858Z,11.47
2017-12-20T02:36:23.343Z,11.90
2017-12-20T02:38:51.593Z,11.90
2017-12-20T02:41:19.077Z,12.07
2017-12-20T02:43:46.623Z,11.97
2017-12-20T02:46:14.093Z,11.37
2017-12-20T02:48:41.663Z,12.93
2017-12-20T02:51:09.150Z,10.67
2017-12-20T02:53:36.611Z,10.53
2017-12-20T02:56:04.854Z,11.00
2017-12-20T02:58:32.342Z,12.23
2017-12-20T03:00:59.793Z,11.53
2017-12-20T03:03:27.254Z,11.40
2017-12-20T03:05:54.734Z,11.67
2017-12-20T03:08:22.192Z,11.27
2017-12-20T03:10:49.678Z,10.47
2017-12-20T03:13:17.153Z,12.37
2017-12-20T03:15:44.615Z,11.17
2017-12-20T03:18:12.166Z,11.63
2017-12-20T03:20:40.441Z,13.17
2017-12-20T03:23:08.670Z,12.10
2017-12-20T03:25:36.129Z,11.40
2017-12-20T03:28:03.621Z,12.97
2017-12-20T03:30:31.995Z,12.73
2017-12-20T03:32:59.453Z,11.57
2017-12-20T03:35:26.930Z,12.77
2017-12-20T03:37:54.393Z,11.47
2017-12-20T03:40:21.871Z,11.23
2017-12-20T03:42:49.321Z,12.87
2017-12-20T03:45:16.821Z,13.33
2017-12-20T03:47:44.283Z,14.07
2017-12-20T03:50:11.742Z,13.53
2017-12-20T03:52:39.226Z,15.33
2017-12-20T03:55:06.681Z,15.33
2017-12-20T03:57:34.169Z,13.00
2017-12-20T04:00:03.206Z,14.25
2017-12-20T04:02:30.661Z,15.67
2017-12-20T04:04:58.142Z,15.77
2017-12-20T04:07:25.629Z,15.10
2017-12-20T04:09:53.891Z,15.10
2017-12-20T04:12:21.346Z,14.17
2017-12-20T04:14:48.842Z,13.95
2017-12-20T04:17:16.306Z,15.17
2017-12-20T04:19:43.778Z,14.50
2017-12-20T04:22:11.286Z,16.70
2017-12-20T04:24:39.536Z,14.00
2017-12-20T04:27:07.026Z,14.37
2017-12-20T04:29:35.288Z,14.00
2017-12-20T04:32:03.009Z,13.60
2017-12-20T04:34:30.469Z,15.40
2017-12-20T04:36:57.954Z,16.13
2017-12-20T04:39:25.446Z,15.30
2017-12-20T04:41:53.669Z,16.23
2017-12-20T04:44:21.170Z,17.50
2017-12-20T04:46:48.621Z,16.57
2017-12-20T04:49:16.260Z,14.67
2017-12-20T04:51:43.773Z,14.87
2017-12-20T04:54:12.022Z,17.47
2017-12-20T04:56:39.514Z,16.70
2017-12-20T04:59:06.981Z,18.83
2017-12-20T05:01:34.453Z,17.30
2017-12-20T05:04:01.910Z,17.57
2017-12-20T05:06:29.389Z,17.90
2017-12-20T05:08:56.870Z,18.73
2017-12-20T05:11:24.341Z,19.83
2017-12-20T05:13:52.575Z,17.90
2017-12-20T05:16:20.088Z,18.20
2017-12-20T05:18:48.327Z,17.03
2017-12-20T05:21:15.798Z,15.23
2017-12-20T05:23:43.254Z,16.23
2017-12-20T05:26:10.729Z,14.83
2017-12-20T05:28:38.986Z,14.27
2017-12-20T05:31:06.495Z,17.47
2017-12-20T05:33:34.991Z,14.80
2017-12-20T05:36:02.441Z,14.43
2017-12-20T05:38:30.870Z,16.20
2017-12-20T05:40:58.345Z,15.60
2017-12-20T05:43:26.335Z,15.70
2017-12-20T05:45:53.834Z,16.50
2017-12-20T05:48:21.319Z,16.20
2017-12-20T05:50:48.799Z,15.00
2017-12-20T05:53:16.262Z,15.03
2017-12-20T05:55:43.748Z,16.53
2017-12-20T05:58:11.249Z,15.13
2017-12-20T06:00:38.702Z,17.33
2017-12-20T06:03:06.159Z,18.50
2017-12-20T06:05:33.634Z,19.23
2017-12-20T06:08:01.983Z,17.87
2017-12-20T06:10:29.661Z,17.47
2017-12-20T06:12:57.154Z,15.03
2017-12-20T06:15:24.617Z,14.70
2017-12-20T06:17:52.098Z,17.23
2017-12-20T06:20:19.598Z,15.73
2017-12-20T06:22:47.058Z,14.50
2017-12-20T06:25:14.534Z,15.40
2017-12-20T06:27:42.762Z,14.13
2017-12-20T06:30:10.311Z,16.00
2017-12-20T06:32:37.765Z,16.63
2017-12-20T06:35:06.038Z,16.10
2017-12-20T06:37:33.514Z,15.43
2017-12-20T06:40:04.960Z,13.83
2017-12-20T06:42:33.245Z,15.53
2017-12-20T06:45:01.469Z,14.57
2017-12-20T06:47:28.955Z,14.20
2017-12-20T06:49:56.430Z,15.20
2017-12-20T06:52:24.588Z,14.57
2017-12-20T06:54:52.067Z,15.00
2017-12-20T06:57:19.526Z,15.20
2017-12-20T06:59:47.010Z,14.77
2017-12-20T07:02:14.501Z,14.43
2017-12-20T07:04:41.966Z,15.73
2017-12-20T07:07:09.462Z,14.80
2017-12-20T07:09:36.922Z,15.27
2017-12-20T07:12:06.114Z,13.70
2017-12-20T07:14:33.573Z,15.77
2017-12-20T07:17:01.039Z,15.70
2017-12-20T07:19:28.516Z,19.45
2017-12-20T07:21:55.979Z,15.37
2017-12-20T07:24:24.186Z,15.40
2017-12-20T07:26:51.643Z,14.90
2017-12-20T07:29:19.927Z,15.67
2017-12-20T07:31:47.418Z,15.40
2017-12-20T07:34:14.873Z,15.37
2017-12-20T07:36:42.332Z,14.77
2017-12-20T07:39:09.806Z,15.00
2017-12-20T07:41:37.284Z,15.90
2017-12-20T07:44:04.760Z,16.03
2017-12-20T07:46:33.010Z,16.37
2017-12-20T07:49:00.481Z,15.93
2017-12-20T07:51:27.945Z,14.40
2017-12-20T07:53:55.417Z,15.10
2017-12-20T07:56:23.674Z,14.90
2017-12-20T07:58:52.083Z,15.77
2017-12-20T08:01:22.134Z,14.47
2017-12-20T08:03:49.586Z,14.57
2017-12-20T08:06:17.046Z,13.43
2017-12-20T08:08:44.522Z,15.47
2017-12-20T08:11:11.970Z,13.60
2017-12-20T08:13:39.449Z,15.83
2017-12-20T08:16:07.181Z,14.80
2017-12-20T08:18:34.653Z,18.90
2017-12-20T08:21:02.118Z,17.20
2017-12-20T08:23:29.596Z,16.37
2017-12-20T08:25:57.077Z,16.13
2017-12-20T08:28:24.655Z,15.35
2017-12-20T08:30:52.133Z,18.03
2017-12-20T08:33:19.585Z,16.93
2017-12-20T08:35:47.078Z,17.10
2017-12-20T08:38:14.537Z,17.80
2017-12-20T08:40:41.994Z,16.80
2017-12-20T08:43:09.513Z,17.37
2017-12-20T08:45:37.889Z,17.33
2017-12-20T08:48:05.949Z,18.23
2017-12-20T08:50:33.400Z,17.77
2017-12-20T08:53:01.667Z,17.10
2017-12-20T08:55:30.310Z,19.70
2017-12-20T08:57:57.825Z,19.83
2017-12-20T09:00:25.323Z,20.40
2017-12-20T09:02:52.786Z,20.20
2017-12-20T09:05:20.294Z,19.67
2017-12-20T09:07:47.797Z,19.23
2017-12-20T09:10:15.296Z,19.67
2017-12-20T09:12:42.757Z,21.17
2017-12-20T09:15:10.233Z,19.63
2017-12-20T09:17:39.442Z,19.10
2017-12-20T09:20:06.991Z,19.70
2017-12-20T09:22:36.207Z,20.90
2017-12-20T09:25:03.698Z,17.40
2017-12-20T09:27:31.195Z,23.30
2017-12-20T09:29:58.654Z,18.30
2017-12-20T09:32:26.110Z,20.77
2017-12-20T09:34:54.363Z,24.50
2017-12-20T09:37:21.827Z,23.67
2017-12-20T09:39:49.311Z,19.30
2017-12-20T09:42:17.534Z,23.70
2017-12-20T09:44:45.031Z,22.03
2017-12-20T09:47:12.500Z,17.27
2017-12-20T09:49:40.814Z,22.17
2017-12-20T09:52:09.194Z,22.03
2017-12-20T09:54:36.693Z,19.40
2017-12-20T09:57:04.250Z,26.30
2017-12-20T09:59:31.696Z,20.77
2017-12-20T10:01:59.162Z,19.30
2017-12-20T10:04:26.635Z,23.13
2017-12-20T10:06:54.118Z,23.77
2017-12-20T10:09:21.586Z,21.30
2017-12-20T10:11:49.086Z,21.33
2017-12-20T10:14:16.560Z,19.97
2017-12-20T10:16:44.051Z,20.33
2017-12-20T10:19:12.325Z,19.73
2017-12-20T10:21:40.770Z,18.62
2017-12-20T10:24:08.286Z,20.70
2017-12-20T10:26:35.762Z,18.37
2017-12-20T10:29:03.224Z,19.53
2017-12-20T10:31:31.467Z,20.10
2017-12-20T10:33:59.722Z,20.07
2017-12-20T10:36:27.194Z,17.70
2017-12-20T10:38:55.434Z,20.20
2017-12-20T10:41:22.915Z,17.57
2017-12-20T10:43:51.150Z,16.53
2017-12-20T10:46:18.666Z,18.70
2017-12-20T10:48:46.958Z,17.70
2017-12-20T10:51:14.418Z,18.60
2017-12-20T10:53:41.902Z,16.17
2017-12-20T10:56:09.378Z,17.13
2017-12-20T10:58:36.842Z,18.00
2017-12-20T11:01:04.329Z,18.43
2017-12-20T11:03:31.791Z,15.60
2017-12-20T11:05:59.291Z,16.90
2017-12-20T11:08:26.762Z,16.27
2017-12-20T11:10:54.241Z,18.53
2017-12-20T11:13:21.722Z,18.10
2017-12-20T11:15:49.970Z,16.20
2017-12-20T11:18:17.477Z,21.93
2017-12-20T11:20:44.934Z,17.83
2017-12-20T11:23:13.182Z,19.40
2017-12-20T11:25:42.909Z,17.35
2017-12-20T11:28:12.107Z,20.23
2017-12-20T11:30:40.347Z,21.00
2017-12-20T11:33:07.806Z,19.93
2017-12-20T11:35:35.291Z,20.77
2017-12-20T11:38:02.754Z,18.50
2017-12-20T11:40:30.217Z,19.17
2017-12-20T11:42:58.473Z,18.17
2017-12-20T11:45:25.953Z,18.83
2017-12-20T11:47:53.505Z,19.10
2017-12-20T11:50:21.762Z,18.60
2017-12-20T11:52:49.225Z,21.47
2017-12-20T11:55:16.703Z,20.47
2017-12-20T11:57:44.942Z,20.53
2017-12-20T12:00:12.413Z,20.03
2017-12-20T12:02:39.871Z,18.47
2017-12-20T12:05:07.358Z,18.33
2017-12-20T12:07:35.583Z,17.87
2017-12-20T12:10:03.086Z,18.73
2017-12-20T12:12:31.330Z,17.57
2017-12-20T12:14:59.558Z,17.10
2017-12-20T12:17:27.070Z,17.40
2017-12-20T12:19:54.538Z,17.50
2017-12-20T12:22:22.005Z,21.53
2017-12-20T12:24:49.481Z,20.43
2017-12-20T12:27:17.709Z,23.00
2017-12-20T12:29:45.194Z,21.30
2017-12-20T12:32:12.765Z,18.98
2017-12-20T12:34:40.258Z,20.73
2017-12-20T12:37:07.735Z,17.97
2017-12-20T12:39:35.237Z,19.63
2017-12-20T12:42:03.714Z,17.00
2017-12-20T12:44:31.188Z,19.50
2017-12-20T12:46:59.437Z,18.17
2017-12-20T12:49:26.905Z,16.10
2017-12-20T12:51:54.386Z,15.97
2017-12-20T12:54:22.605Z,16.80
2017-12-20T12:56:50.089Z,15.47
2017-12-20T12:59:18.745Z,12.70
2017-12-20T13:01:46.202Z,16.87
2017-12-20T13:04:13.698Z,17.20
2017-12-20T13:06:41.154Z,16.77
2017-12-20T13:09:08.634Z,16.77
2017-12-20T13:11:36.908Z,16.17
2017-12-20T13:14:05.134Z,17.63
2017-12-20T13:16:32.607Z,16.23
2017-12-20T13:19:00.066Z,15.77
2017-12-20T13:21:27.622Z,15.77
2017-12-20T13:23:55.090Z,15.23
2017-12-20T13:26:22.551Z,18.13
2017-12-20T13:28:50.032Z,16.70
2017-12-20T13:31:17.510Z,16.53
2017-12-20T13:33:44.964Z,17.97
2017-12-20T13:36:14.126Z,17.10
2017-12-20T13:38:41.644Z,17.50
2017-12-20T13:41:09.106Z,15.93
2017-12-20T13:43:36.589Z,15.00
2017-12-20T13:46:04.070Z,16.87
2017-12-20T13:48:31.530Z,14.80
2017-12-20T13:50:59.023Z,14.73
2017-12-20T13:53:26.899Z,16.17
2017-12-20T13:55:54.355Z,16.10
2017-12-20T13:58:21.841Z,16.80
2017-12-20T14:00:49.315Z,16.87
2017-12-20T14:03:16.776Z,14.70
2017-12-20T14:05:44.266Z,17.90
2017-12-20T14:08:12.534Z,17.53
2017-12-20T14:10:40.794Z,17.03
2017-12-20T14:13:08.298Z,17.43
2017-12-20T14:15:36.578Z,18.90
2017-12-20T14:18:04.050Z,17.67
2017-12-20T14:20:31.525Z,21.30
2017-12-20T14:22:58.978Z,19.40
2017-12-20T14:25:26.459Z,15.93
2017-12-20T14:27:53.931Z,17.00
2017-12-20T14:30:21.418Z,16.37
2017-12-20T14:32:48.872Z,19.50
2017-12-20T14:35:16.330Z,15.80
2017-12-20T14:37:44.744Z,16.52
2017-12-20T14:40:12.202Z,18.50
2017-12-20T14:42:40.190Z,17.73
2017-12-20T14:45:07.683Z,17.00
2017-12-20T14:47:35.936Z,16.97
2017-12-20T14:50:03.417Z,18.30
2017-12-20T14:52:31.650Z,18.10
2017-12-20T14:54:59.118Z,17.20
2017-12-20T14:57:26.601Z,14.30
2017-12-20T14:59:54.089Z,14.73
2017-12-20T15:02:21.568Z,16.30
2017-12-20T15:04:49.066Z,13.20
2017-12-20T15:07:16.527Z,15.07
2017-12-20T15:09:43.982Z,13.77
2017-12-20T15:12:11.463Z,13.60
2017-12-20T15:14:38.922Z,13.33
2017-12-20T15:17:07.142Z,15.10
2017-12-20T15:19:34.642Z,16.50
2017-12-20T15:22:02.128Z,13.27
2017-12-20T15:24:29.585Z,15.07
2017-12-20T15:26:57.114Z,15.03
2017-12-20T15:29:24.606Z,14.43
2017-12-20T15:31:52.102Z,14.83
2017-12-20T15:34:19.580Z,15.93
2017-12-20T15:36:47.986Z,15.20
2017-12-20T15:39:15.765Z,16.30
2017-12-20T15:41:43.256Z,17.20
2017-12-20T15:44:10.708Z,17.77
2017-12-20T15:46:38.170Z,21.17
2017-12-20T15:49:05.660Z,19.40
2017-12-20T15:51:33.110Z,20.27
2017-12-20T15:54:00.598Z,19.57
2017-12-20T15:56:28.826Z,17.67
2017-12-20T15:58:56.354Z,17.87
2017-12-20T16:01:23.838Z,20.13
2017-12-20T16:03:51.297Z,19.20
2017-12-20T16:06:18.789Z,21.77
2017-12-20T16:08:46.246Z,18.43
2017-12-20T16:11:13.745Z,18.80
2017-12-20T16:13:41.254Z,21.00
2017-12-20T16:16:08.737Z,20.13
2017-12-20T16:18:36.262Z,19.57
2017-12-20T16:21:03.738Z,23.70
2017-12-20T16:23:31.225Z,23.80
2017-12-20T16:25:58.721Z,23.77
2017-12-20T16:28:26.258Z,19.33
2017-12-20T16:30:53.724Z,21.03
2017-12-20T16:33:21.206Z,21.67
2017-12-20T16:35:48.717Z,17.80
2017-12-20T16:38:16.559Z,21.33
2017-12-20T16:40:44.026Z,23.73
2017-12-20T16:43:11.506Z,27.50
2017-12-20T16:45:38.998Z,27.70
2017-12-20T16:48:06.487Z,24.43
2017-12-20T16:50:33.974Z,25.60
2017-12-20T16:53:02.202Z,20.30
2017-12-20T16:55:29.669Z,19.93
2017-12-20T16:57:58.008Z,19.30
2017-12-20T17:00:25.490Z,18.10
2017-12-20T17:02:52.985Z,19.27
2017-12-20T17:05:20.455Z,22.77
2017-12-20T17:07:47.959Z,23.57
2017-12-20T17:10:15.441Z,20.60
2017-12-20T17:12:42.927Z,19.80
2017-12-20T17:15:10.428Z,21.83
2017-12-20T17:17:37.926Z,17.80
2017-12-20T17:20:05.394Z,18.60
2017-12-20T17:22:32.854Z,21.93
2017-12-20T17:25:00.382Z,20.63
2017-12-20T17:27:27.877Z,17.90
2017-12-20T17:29:55.337Z,18.27
2017-12-20T17:32:23.065Z,19.60
2017-12-20T17:34:51.424Z,16.70
2017-12-20T17:37:23.290Z,20.10
2017-12-20T17:39:50.986Z,19.63
2017-12-20T17:42:19.702Z,16.60
2017-12-20T17:44:48.814Z,18.05
2017-12-20T17:47:16.691Z,17.60
2017-12-20T17:49:45.215Z,17.67
2017-12-20T17:52:15.512Z,18.77
2017-12-20T17:54:43.708Z,18.23
2017-12-20T17:57:11.207Z,16.87
2017-12-20T17:59:39.613Z,19.50
2017-12-20T18:02:07.384Z,17.87
2017-12-20T18:07:34.987Z,17.17
2017-12-20T18:10:17.307Z,17.57
2017-12-20T18:13:03.229Z,17.87
2017-12-20T18:15:36.640Z,18.40
2017-12-20T18:18:09.218Z,17.35
2017-12-20T18:20:53.825Z,20.10
2017-12-20T18:23:21.557Z,17.73
2017-12-20T18:25:49.022Z,16.93
2017-12-20T18:28:16.519Z,22.87
2017-12-20T18:30:43.988Z,18.63
2017-12-20T18:33:11.469Z,22.40
2017-12-20T18:35:38.959Z,19.67
2017-12-20T18:38:06.450Z,20.43
2017-12-20T18:40:33.901Z,19.60
2017-12-20T18:43:02.146Z,20.93
2017-12-20T18:45:29.633Z,19.20
2017-12-20T18:47:57.122Z,19.87
2017-12-20T18:50:25.414Z,19.73
2017-12-20T18:52:53.654Z,18.53
2017-12-20T18:55:21.145Z,20.87
2017-12-20T18:57:49.150Z,18.67
2017-12-20T19:00:17.125Z,22.27
2017-12-20T19:02:44.968Z,20.20
2017-12-20T19:05:13.529Z,20.50
2017-12-20T19:07:41.486Z,24.80
2017-12-20T19:10:09.099Z,23.10
2017-12-20T19:12:36.936Z,20.83
2017-12-20T19:15:04.409Z,21.87
2017-12-20T19:17:32.071Z,23.60
2017-12-20T19:20:01.200Z,20.47
2017-12-20T19:22:28.665Z,23.00
2017-12-20T19:24:56.163Z,23.00
2017-12-20T19:27:23.634Z,23.80
2017-12-20T19:29:51.892Z,28.57
2017-12-20T19:32:19.711Z,22.58
2017-12-20T19:34:47.174Z,17.77
2017-12-20T19:37:14.633Z,21.07
2017-12-20T19:39:42.120Z,23.67
2017-12-20T19:42:09.589Z,20.60
2017-12-20T19:44:37.091Z,23.40
2017-12-20T19:47:04.570Z,18.80
2017-12-20T19:49:32.066Z,20.73
2017-12-20T19:51:59.520Z,20.30
2017-12-20T19:54:26.978Z,19.63
2017-12-20T19:56:54.457Z,14.23
2017-12-20T19:59:22.890Z,21.00
2017-12-20T20:01:53.279Z,21.97
2017-12-20T20:04:20.785Z,19.60
2017-12-20T20:06:48.236Z,21.07
2017-12-20T20:09:15.719Z,21.30
2017-12-20T20:11:43.189Z,19.10
2017-12-20T20:14:10.680Z,18.80
2017-12-20T20:16:38.152Z,19.53
2017-12-20T20:19:05.625Z,18.00
2017-12-20T20:21:33.274Z,19.63
2017-12-20T20:24:00.757Z,19.37
2017-12-20T20:26:28.520Z,20.90
2017-12-20T20:28:56.029Z,19.87
2017-12-20T20:31:23.678Z,20.53
2017-12-20T20:33:51.171Z,20.67
2017-12-20T20:36:20.323Z,19.33
2017-12-20T20:38:47.869Z,20.37
2017-12-20T20:41:15.473Z,18.40
2017-12-20T20:43:43.700Z,19.60
2017-12-20T20:46:11.371Z,18.97
2017-12-20T20:48:38.864Z,19.30
2017-12-20T20:51:07.441Z,19.13
2017-12-20T20:53:35.146Z,19.97
2017-12-20T20:56:02.681Z,19.70
2017-12-20T20:58:30.961Z,18.73
2017-12-20T21:00:59.244Z,18.27
2017-12-20T21:03:26.903Z,19.77
2017-12-20T21:05:55.261Z,18.60
2017-12-20T21:08:22.833Z,19.50
2017-12-20T21:10:52.140Z,17.93
2017-12-20T21:13:19.729Z,16.03
2017-12-20T21:15:47.222Z,17.40
2017-12-20T21:18:14.741Z,21.77
2017-12-20T21:20:42.217Z,17.63
2017-12-20T21:23:09.915Z,17.13
2017-12-20T21:25:37.389Z,17.93
2017-12-20T21:28:04.859Z,14.67
2017-12-20T21:30:33.040Z,17.10
2017-12-20T21:33:00.498Z,15.53
2017-12-20T21:35:27.973Z,18.90
2017-12-20T21:37:55.466Z,17.97
2017-12-20T21:40:22.933Z,18.87
2017-12-20T21:42:50.418Z,17.50
2017-12-20T21:45:17.877Z,18.07
2017-12-20T21:47:45.344Z,17.80
2017-12-20T21:50:12.844Z,21.30
2017-12-20T21:52:41.086Z,17.30
2017-12-20T21:55:08.600Z,18.87
2017-12-20T21:57:36.099Z,18.83
2017-12-20T22:00:04.334Z,19.07
2017-12-20T22:02:31.816Z,17.50
2017-12-20T22:05:00.053Z,16.97
2017-12-20T22:07:27.547Z,17.50
2017-12-20T22:09:55.302Z,17.37
2017-12-20T22:12:22.983Z,18.73
2017-12-20T22:14:50.472Z,19.57
2017-12-20T22:17:17.947Z,17.10
2017-12-20T22:19:45.454Z,17.83
2017-12-20T22:22:13.706Z,17.13
2017-12-20T22:24:41.208Z,20.30
2017-12-20T22:27:08.675Z,17.90
2017-12-20T22:29:36.171Z,18.27
2017-12-20T22:32:03.666Z,18.27
2017-12-20T22:34:31.929Z,21.00
2017-12-20T22:36:59.390Z,18.87
2017-12-20T22:39:26.935Z,18.63
2017-12-20T22:41:54.474Z,18.90
2017-12-20T22:44:22.043Z,14.70
2017-12-20T22:46:49.550Z,18.90
2017-12-20T22:49:17.587Z,17.60
2017-12-20T22:51:45.094Z,20.70
2017-12-20T22:54:12.695Z,19.63
2017-12-20T22:56:40.970Z,16.33
2017-12-20T22:59:08.465Z,15.15
2017-12-20T23:01:36.786Z,13.47
2017-12-20T23:04:04.250Z,17.03
2017-12-20T23:06:32.400Z,19.63
2017-12-20T23:08:59.938Z,10.83
2017-12-20T23:11:27.520Z,11.00
2017-12-20T23:13:55.038Z,14.23
2017-12-20T23:16:22.569Z,14.73
2017-12-20T23:18:50.036Z,13.50
2017-12-20T23:21:17.532Z,9.07
2017-12-20T23:23:45.034Z,14.00
2017-12-20T23:26:12.513Z,14.30
2017-12-20T23:28:39.962Z,13.97
2017-12-20T23:31:07.443Z,7.07
2017-12-20T23:33:35.070Z,10.10
2017-12-20T23:36:02.541Z,11.90
2017-12-20T23:38:30.207Z,15.93
2017-12-20T23:40:57.914Z,12.00
2017-12-20T23:43:25.540Z,11.43
2017-12-20T23:45:53.292Z,8.37
2017-12-20T23:48:21.007Z,12.03
2017-12-20T23:50:48.689Z,13.40
2017-12-20T23:53:17.858Z,17.03
2017-12-20T23:55:45.498Z,14.33
2017-12-20T23:58:14.019Z,13.80
